Strathmore (D.J. Murray) Airport

SPECI CYYC TAF CYYC
-9 °C
°C
-
°C
56m
年龄
12:55:44
LT
11:55
UTC
0 ft

2.000

4.000

6.000

8.000

10.000

BKN 5.500
OVC 7.200
VFR
<?= Yii::t('app', 'Wind direction') ?> <?= Yii::t('app', 'of'); ?>
360°
08:15
日出
79%
湿度
风切变
关闭/下雪
RWY可视范围
RWY状况
垂直能见度
最低能见度
CAVOK
趋势
纠正
特别报告
30,04 inHg
QNH
SPECI CYYC 301100Z 36011KT 5SM -SN BR DRSN BKN055 OVC072 M09/M12 A3004 RMK SC6AC2 SLP259
光 雪, 薄雾, 低飘 雪
0 kt
0 kt
05:00
IFR
15 kt
06:00
IFR
15 kt
07:00
IFR
15 kt
08:00
IFR
15 kt
09:00
IFR
15 kt
10:00
VFR
8 kt
11:00
VFR
8 kt
5 mi
能见度
5.500 ft
天花板
11 kt
metar-taf.com/CDJ5

Metar-Taf.com

视觉解码器

我们和第三方通过cookies跟踪您在我们网站上的互联网行为。如果你继续,我们认为你同意我们的饼干政策